sensor_id;sensor_type;location;lat;lon;timestamp;P1;durP1;ratioP1;P2;durP2;ratioP2
40339;SDS011;26044;50.864;20.658;2023-02-11T00:02:21;62.45;;;26.52;;
40339;SDS011;26044;50.864;20.658;2023-02-11T00:04:49;65.03;;;28.20;;
40339;SDS011;26044;50.864;20.658;2023-02-11T00:07:16;71.68;;;29.55;;
40339;SDS011;26044;50.864;20.658;2023-02-11T00:09:43;73.40;;;31.35;;
40339;SDS011;26044;50.864;20.658;2023-02-11T00:12:10;72.80;;;29.80;;
40339;SDS011;26044;50.864;20.658;2023-02-11T00:14:40;72.85;;;30.40;;
40339;SDS011;26044;50.864;20.658;2023-02-11T00:17:08;70.88;;;30.92;;
40339;SDS011;26044;50.864;20.658;2023-02-11T00:19:35;71.78;;;32.13;;
40339;SDS011;26044;50.864;20.658;2023-02-11T00:22:02;74.70;;;33.85;;
40339;SDS011;26044;50.864;20.658;2023-02-11T00:24:29;75.28;;;34.10;;
40339;SDS011;26044;50.864;20.658;2023-02-11T00:26:57;77.90;;;33.47;;
40339;SDS011;26044;50.864;20.658;2023-02-11T00:29:25;75.50;;;31.45;;
40339;SDS011;26044;50.864;20.658;2023-02-11T00:31:52;81.47;;;32.75;;
40339;SDS011;26044;50.864;20.658;2023-02-11T00:34:20;70.72;;;31.40;;
40339;SDS011;26044;50.864;20.658;2023-02-11T00:36:47;74.28;;;34.25;;
40339;SDS011;26044;50.864;20.658;2023-02-11T00:39:15;72.95;;;31.85;;
40339;SDS011;26044;50.864;20.658;2023-02-11T00:41:42;68.47;;;32.70;;
40339;SDS011;26044;50.864;20.658;2023-02-11T00:44:09;77.25;;;31.38;;
40339;SDS011;26044;50.864;20.658;2023-02-11T00:46:38;73.13;;;31.05;;
40339;SDS011;26044;50.864;20.658;2023-02-11T00:49:14;74.10;;;32.55;;
40339;SDS011;26044;50.864;20.658;2023-02-11T00:51:47;68.85;;;31.70;;
40339;SDS011;26044;50.864;20.658;2023-02-11T00:55:00;71.80;;;31.98;;
40339;SDS011;26044;50.864;20.658;2023-02-11T00:57:38;68.70;;;30.55;;
40339;SDS011;26044;50.864;20.658;2023-02-11T01:00:06;70.93;;;32.33;;
40339;SDS011;26044;50.864;20.658;2023-02-11T01:02:34;68.25;;;28.98;;
40339;SDS011;26044;50.864;20.658;2023-02-11T01:05:01;65.50;;;29.45;;
40339;SDS011;26044;50.864;20.658;2023-02-11T01:07:29;62.67;;;28.30;;
40339;SDS011;26044;50.864;20.658;2023-02-11T01:09:56;65.85;;;28.88;;
40339;SDS011;26044;50.864;20.658;2023-02-11T01:12:23;64.68;;;28.90;;
40339;SDS011;26044;50.864;20.658;2023-02-11T01:14:51;67.60;;;30.33;;
40339;SDS011;26044;50.864;20.658;2023-02-11T01:17:20;69.25;;;29.50;;
40339;SDS011;26044;50.864;20.658;2023-02-11T01:19:49;67.18;;;30.42;;
40339;SDS011;26044;50.864;20.658;2023-02-11T01:22:16;70.68;;;31.63;;
40339;SDS011;26044;50.864;20.658;2023-02-11T01:24:43;70.13;;;29.75;;
40339;SDS011;26044;50.864;20.658;2023-02-11T01:27:11;68.13;;;30.75;;
40339;SDS011;26044;50.864;20.658;2023-02-11T01:29:38;66.10;;;30.60;;
40339;SDS011;26044;50.864;20.658;2023-02-11T01:32:05;73.05;;;30.65;;
40339;SDS011;26044;50.864;20.658;2023-02-11T01:34:32;67.35;;;29.90;;
40339;SDS011;26044;50.864;20.658;2023-02-11T01:37:00;64.75;;;27.95;;
40339;SDS011;26044;50.864;20.658;2023-02-11T01:39:27;62.50;;;29.60;;
40339;SDS011;26044;50.864;20.658;2023-02-11T01:41:54;63.83;;;28.38;;
40339;SDS011;26044;50.864;20.658;2023-02-11T01:44:29;68.90;;;28.60;;
40339;SDS011;26044;50.864;20.658;2023-02-11T01:46:56;67.43;;;28.70;;
40339;SDS011;26044;50.864;20.658;2023-02-11T01:49:27;68.70;;;29.38;;
40339;SDS011;26044;50.864;20.658;2023-02-11T01:51:57;72.03;;;28.67;;
40339;SDS011;26044;50.864;20.658;2023-02-11T01:54:27;70.25;;;29.88;;
40339;SDS011;26044;50.864;20.658;2023-02-11T01:57:15;66.10;;;28.90;;
40339;SDS011;26044;50.864;20.658;2023-02-11T01:59:56;71.55;;;30.98;;
40339;SDS011;26044;50.864;20.658;2023-02-11T02:02:29;66.07;;;29.25;;
40339;SDS011;26044;50.864;20.658;2023-02-11T02:05:02;67.32;;;30.92;;
40339;SDS011;26044;50.864;20.658;2023-02-11T02:07:32;67.03;;;30.52;;
40339;SDS011;26044;50.864;20.658;2023-02-11T02:10:03;74.85;;;31.20;;
40339;SDS011;26044;50.864;20.658;2023-02-11T02:12:31;74.55;;;30.08;;
40339;SDS011;26044;50.864;20.658;2023-02-11T02:15:10;70.38;;;30.13;;
40339;SDS011;26044;50.864;20.658;2023-02-11T02:17:38;75.03;;;32.72;;
40339;SDS011;26044;50.864;20.658;2023-02-11T02:25:31;69.78;;;29.85;;
40339;SDS011;26044;50.864;20.658;2023-02-11T02:41:05;82.00;;;35.30;;
40339;SDS011;26044;50.864;20.658;2023-02-11T02:43:38;82.63;;;35.70;;
40339;SDS011;26044;50.864;20.658;2023-02-11T02:46:13;76.60;;;34.10;;
40339;SDS011;26044;50.864;20.658;2023-02-11T02:48:41;79.60;;;36.63;;
40339;SDS011;26044;50.864;20.658;2023-02-11T02:56:39;85.28;;;33.58;;
40339;SDS011;26044;50.864;20.658;2023-02-11T03:02:05;76.65;;;34.90;;
40339;SDS011;26044;50.864;20.658;2023-02-11T03:04:37;80.95;;;33.85;;
40339;SDS011;26044;50.864;20.658;2023-02-11T03:12:03;73.20;;;33.70;;
40339;SDS011;26044;50.864;20.658;2023-02-11T03:14:32;79.45;;;35.95;;
40339;SDS011;26044;50.864;20.658;2023-02-11T03:17:00;84.90;;;35.85;;
40339;SDS011;26044;50.864;20.658;2023-02-11T03:19:30;81.00;;;36.15;;
40339;SDS011;26044;50.864;20.658;2023-02-11T03:21:59;76.33;;;33.97;;
40339;SDS011;26044;50.864;20.658;2023-02-11T03:24:30;76.93;;;35.33;;
40339;SDS011;26044;50.864;20.658;2023-02-11T03:27:49;82.18;;;35.55;;
40339;SDS011;26044;50.864;20.658;2023-02-11T03:29:51;81.07;;;37.53;;
40339;SDS011;26044;50.864;20.658;2023-02-11T03:32:26;79.00;;;35.72;;
40339;SDS011;26044;50.864;20.658;2023-02-11T03:37:29;82.97;;;37.63;;
40339;SDS011;26044;50.864;20.658;2023-02-11T03:40:00;85.28;;;34.63;;
40339;SDS011;26044;50.864;20.658;2023-02-11T03:42:38;87.25;;;37.75;;
40339;SDS011;26044;50.864;20.658;2023-02-11T03:45:11;85.38;;;36.42;;
40339;SDS011;26044;50.864;20.658;2023-02-11T03:47:40;79.03;;;35.83;;
40339;SDS011;26044;50.864;20.658;2023-02-11T03:50:09;90.63;;;38.10;;
40339;SDS011;26044;50.864;20.658;2023-02-11T03:52:37;94.43;;;35.67;;
40339;SDS011;26044;50.864;20.658;2023-02-11T03:55:07;85.93;;;36.83;;
40339;SDS011;26044;50.864;20.658;2023-02-11T03:57:35;80.80;;;34.15;;
40339;SDS011;26044;50.864;20.658;2023-02-11T04:00:02;87.03;;;38.55;;
40339;SDS011;26044;50.864;20.658;2023-02-11T04:02:30;86.65;;;36.10;;
40339;SDS011;26044;50.864;20.658;2023-02-11T04:04:59;88.35;;;36.22;;
40339;SDS011;26044;50.864;20.658;2023-02-11T04:07:26;84.68;;;36.95;;
40339;SDS011;26044;50.864;20.658;2023-02-11T04:09:53;86.15;;;36.83;;
40339;SDS011;26044;50.864;20.658;2023-02-11T04:12:20;89.50;;;37.70;;
40339;SDS011;26044;50.864;20.658;2023-02-11T04:14:48;76.63;;;36.38;;
40339;SDS011;26044;50.864;20.658;2023-02-11T04:17:17;78.25;;;35.75;;
40339;SDS011;26044;50.864;20.658;2023-02-11T04:19:44;86.55;;;37.72;;
40339;SDS011;26044;50.864;20.658;2023-02-11T04:22:12;82.32;;;35.78;;
40339;SDS011;26044;50.864;20.658;2023-02-11T04:24:39;86.38;;;37.50;;
40339;SDS011;26044;50.864;20.658;2023-02-11T04:27:09;77.70;;;33.15;;
40339;SDS011;26044;50.864;20.658;2023-02-11T04:29:36;88.55;;;35.10;;
40339;SDS011;26044;50.864;20.658;2023-02-11T04:32:03;84.95;;;35.53;;
40339;SDS011;26044;50.864;20.658;2023-02-11T04:34:30;77.03;;;34.17;;
40339;SDS011;26044;50.864;20.658;2023-02-11T04:36:58;89.47;;;34.88;;
40339;SDS011;26044;50.864;20.658;2023-02-11T04:39:25;84.43;;;34.08;;
40339;SDS011;26044;50.864;20.658;2023-02-11T04:41:53;76.35;;;34.15;;
40339;SDS011;26044;50.864;20.658;2023-02-11T04:44:20;79.78;;;34.28;;
40339;SDS011;26044;50.864;20.658;2023-02-11T04:46:48;85.72;;;33.78;;
40339;SDS011;26044;50.864;20.658;2023-02-11T04:49:16;83.10;;;33.28;;
40339;SDS011;26044;50.864;20.658;2023-02-11T04:51:43;75.93;;;34.13;;
40339;SDS011;26044;50.864;20.658;2023-02-11T04:54:14;78.75;;;34.15;;
40339;SDS011;26044;50.864;20.658;2023-02-11T04:56:41;79.70;;;35.78;;
40339;SDS011;26044;50.864;20.658;2023-02-11T04:59:09;75.43;;;33.42;;
40339;SDS011;26044;50.864;20.658;2023-02-11T05:01:38;71.75;;;32.15;;
40339;SDS011;26044;50.864;20.658;2023-02-11T05:04:06;71.30;;;32.72;;
40339;SDS011;26044;50.864;20.658;2023-02-11T05:06:33;72.32;;;29.58;;
40339;SDS011;26044;50.864;20.658;2023-02-11T05:09:00;72.07;;;30.38;;
40339;SDS011;26044;50.864;20.658;2023-02-11T05:11:27;72.22;;;31.90;;
40339;SDS011;26044;50.864;20.658;2023-02-11T05:13:55;65.32;;;29.98;;
40339;SDS011;26044;50.864;20.658;2023-02-11T05:16:22;72.22;;;31.30;;
40339;SDS011;26044;50.864;20.658;2023-02-11T05:18:50;69.53;;;30.90;;
40339;SDS011;26044;50.864;20.658;2023-02-11T05:21:19;69.75;;;30.38;;
40339;SDS011;26044;50.864;20.658;2023-02-11T05:23:46;64.00;;;28.50;;
40339;SDS011;26044;50.864;20.658;2023-02-11T05:26:13;69.82;;;30.80;;
40339;SDS011;26044;50.864;20.658;2023-02-11T05:28:41;68.82;;;30.60;;
40339;SDS011;26044;50.864;20.658;2023-02-11T05:31:10;72.72;;;29.75;;
40339;SDS011;26044;50.864;20.658;2023-02-11T05:33:40;69.95;;;28.60;;
40339;SDS011;26044;50.864;20.658;2023-02-11T05:36:08;66.70;;;28.85;;
40339;SDS011;26044;50.864;20.658;2023-02-11T05:38:37;74.60;;;29.85;;
40339;SDS011;26044;50.864;20.658;2023-02-11T05:41:06;62.85;;;28.98;;
40339;SDS011;26044;50.864;20.658;2023-02-11T05:43:33;68.00;;;30.67;;
40339;SDS011;26044;50.864;20.658;2023-02-11T05:46:01;68.82;;;29.73;;
40339;SDS011;26044;50.864;20.658;2023-02-11T05:48:29;63.63;;;28.67;;
40339;SDS011;26044;50.864;20.658;2023-02-11T05:50:56;61.88;;;27.92;;
40339;SDS011;26044;50.864;20.658;2023-02-11T05:53:24;72.20;;;28.48;;
40339;SDS011;26044;50.864;20.658;2023-02-11T05:55:51;64.82;;;29.40;;
40339;SDS011;26044;50.864;20.658;2023-02-11T05:58:19;75.75;;;30.40;;
40339;SDS011;26044;50.864;20.658;2023-02-11T06:00:46;68.70;;;30.80;;
40339;SDS011;26044;50.864;20.658;2023-02-11T06:03:14;64.88;;;29.50;;
40339;SDS011;26044;50.864;20.658;2023-02-11T06:05:42;66.95;;;30.13;;
40339;SDS011;26044;50.864;20.658;2023-02-11T06:08:09;66.32;;;30.20;;
40339;SDS011;26044;50.864;20.658;2023-02-11T06:10:38;73.10;;;28.70;;
40339;SDS011;26044;50.864;20.658;2023-02-11T06:13:08;64.40;;;27.15;;
40339;SDS011;26044;50.864;20.658;2023-02-11T06:15:35;67.20;;;31.20;;
40339;SDS011;26044;50.864;20.658;2023-02-11T06:18:03;77.50;;;34.47;;
40339;SDS011;26044;50.864;20.658;2023-02-11T06:20:31;66.55;;;30.88;;
40339;SDS011;26044;50.864;20.658;2023-02-11T06:22:58;73.80;;;32.03;;
40339;SDS011;26044;50.864;20.658;2023-02-11T06:25:25;69.25;;;30.52;;
40339;SDS011;26044;50.864;20.658;2023-02-11T06:27:52;72.25;;;30.63;;
40339;SDS011;26044;50.864;20.658;2023-02-11T06:30:20;69.38;;;29.98;;
40339;SDS011;26044;50.864;20.658;2023-02-11T06:32:47;70.30;;;30.98;;
40339;SDS011;26044;50.864;20.658;2023-02-11T06:35:16;73.38;;;31.75;;
40339;SDS011;26044;50.864;20.658;2023-02-11T06:37:43;65.45;;;28.38;;
40339;SDS011;26044;50.864;20.658;2023-02-11T06:40:10;63.35;;;29.38;;
40339;SDS011;26044;50.864;20.658;2023-02-11T06:42:38;72.85;;;32.10;;
40339;SDS011;26044;50.864;20.658;2023-02-11T06:45:08;72.22;;;31.35;;
40339;SDS011;26044;50.864;20.658;2023-02-11T06:47:38;72.45;;;33.05;;
40339;SDS011;26044;50.864;20.658;2023-02-11T06:50:06;76.60;;;34.10;;
40339;SDS011;26044;50.864;20.658;2023-02-11T06:52:48;72.63;;;31.55;;
40339;SDS011;26044;50.864;20.658;2023-02-11T06:55:15;67.50;;;30.52;;
40339;SDS011;26044;50.864;20.658;2023-02-11T06:57:42;71.00;;;31.92;;
40339;SDS011;26044;50.864;20.658;2023-02-11T07:00:11;74.88;;;32.13;;
40339;SDS011;26044;50.864;20.658;2023-02-11T07:02:40;77.15;;;32.45;;
40339;SDS011;26044;50.864;20.658;2023-02-11T07:05:07;73.30;;;31.42;;
40339;SDS011;26044;50.864;20.658;2023-02-11T07:07:35;74.50;;;32.05;;
40339;SDS011;26044;50.864;20.658;2023-02-11T07:10:03;75.97;;;32.08;;
40339;SDS011;26044;50.864;20.658;2023-02-11T07:12:31;78.75;;;34.55;;
40339;SDS011;26044;50.864;20.658;2023-02-11T07:14:58;68.05;;;32.13;;
40339;SDS011;26044;50.864;20.658;2023-02-11T07:17:25;69.82;;;30.17;;
40339;SDS011;26044;50.864;20.658;2023-02-11T07:19:52;67.57;;;30.10;;
40339;SDS011;26044;50.864;20.658;2023-02-11T07:22:19;65.32;;;29.05;;
40339;SDS011;26044;50.864;20.658;2023-02-11T07:24:47;73.80;;;29.23;;
40339;SDS011;26044;50.864;20.658;2023-02-11T07:27:14;68.80;;;29.55;;
40339;SDS011;26044;50.864;20.658;2023-02-11T07:29:41;61.10;;;27.08;;
40339;SDS011;26044;50.864;20.658;2023-02-11T07:32:09;69.72;;;29.65;;
40339;SDS011;26044;50.864;20.658;2023-02-11T07:34:36;71.82;;;30.10;;
40339;SDS011;26044;50.864;20.658;2023-02-11T07:37:03;68.95;;;29.52;;
40339;SDS011;26044;50.864;20.658;2023-02-11T07:39:30;67.13;;;30.30;;
40339;SDS011;26044;50.864;20.658;2023-02-11T07:41:58;67.28;;;28.25;;
40339;SDS011;26044;50.864;20.658;2023-02-11T07:44:25;70.75;;;30.77;;
40339;SDS011;26044;50.864;20.658;2023-02-11T07:46:54;64.25;;;29.48;;
40339;SDS011;26044;50.864;20.658;2023-02-11T07:49:22;63.38;;;27.52;;
40339;SDS011;26044;50.864;20.658;2023-02-11T07:51:49;64.90;;;28.15;;
40339;SDS011;26044;50.864;20.658;2023-02-11T07:54:16;64.00;;;27.77;;
40339;SDS011;26044;50.864;20.658;2023-02-11T07:56:43;55.22;;;26.00;;
40339;SDS011;26044;50.864;20.658;2023-02-11T07:59:11;63.60;;;25.77;;
40339;SDS011;26044;50.864;20.658;2023-02-11T08:01:38;56.72;;;25.33;;
40339;SDS011;26044;50.864;20.658;2023-02-11T08:04:05;55.58;;;25.77;;
40339;SDS011;26044;50.864;20.658;2023-02-11T08:06:33;62.92;;;25.30;;
40339;SDS011;26044;50.864;20.658;2023-02-11T08:09:04;58.50;;;25.02;;
40339;SDS011;26044;50.864;20.658;2023-02-11T08:11:32;56.20;;;24.52;;
40339;SDS011;26044;50.864;20.658;2023-02-11T08:13:59;57.92;;;24.05;;
40339;SDS011;26044;50.864;20.658;2023-02-11T08:16:28;54.88;;;23.27;;
40339;SDS011;26044;50.864;20.658;2023-02-11T08:18:57;57.33;;;24.13;;
40339;SDS011;26044;50.864;20.658;2023-02-11T08:21:24;58.38;;;25.75;;
40339;SDS011;26044;50.864;20.658;2023-02-11T08:23:52;56.65;;;25.90;;
40339;SDS011;26044;50.864;20.658;2023-02-11T08:26:20;61.95;;;25.40;;
40339;SDS011;26044;50.864;20.658;2023-02-11T08:28:48;54.05;;;24.50;;
40339;SDS011;26044;50.864;20.658;2023-02-11T08:31:20;50.95;;;23.42;;
40339;SDS011;26044;50.864;20.658;2023-02-11T08:33:48;56.83;;;25.70;;
40339;SDS011;26044;50.864;20.658;2023-02-11T08:36:19;56.08;;;23.35;;
40339;SDS011;26044;50.864;20.658;2023-02-11T08:38:46;52.78;;;24.65;;
40339;SDS011;26044;50.864;20.658;2023-02-11T08:41:14;53.67;;;22.48;;
40339;SDS011;26044;50.864;20.658;2023-02-11T08:43:43;56.90;;;24.65;;
40339;SDS011;26044;50.864;20.658;2023-02-11T08:46:12;55.38;;;25.20;;
40339;SDS011;26044;50.864;20.658;2023-02-11T08:48:40;55.47;;;24.10;;
40339;SDS011;26044;50.864;20.658;2023-02-11T08:51:07;52.90;;;24.15;;
40339;SDS011;26044;50.864;20.658;2023-02-11T08:53:35;59.17;;;24.98;;
40339;SDS011;26044;50.864;20.658;2023-02-11T08:56:04;58.03;;;24.48;;
40339;SDS011;26044;50.864;20.658;2023-02-11T08:58:32;52.28;;;23.15;;
40339;SDS011;26044;50.864;20.658;2023-02-11T09:00:59;52.33;;;24.27;;
40339;SDS011;26044;50.864;20.658;2023-02-11T09:03:26;53.05;;;24.95;;
40339;SDS011;26044;50.864;20.658;2023-02-11T09:05:53;53.95;;;24.15;;
40339;SDS011;26044;50.864;20.658;2023-02-11T09:08:22;49.65;;;21.88;;
40339;SDS011;26044;50.864;20.658;2023-02-11T09:10:49;48.67;;;22.17;;
40339;SDS011;26044;50.864;20.658;2023-02-11T09:13:16;55.80;;;25.83;;
40339;SDS011;26044;50.864;20.658;2023-02-11T09:15:44;51.05;;;23.40;;
40339;SDS011;26044;50.864;20.658;2023-02-11T09:18:12;56.17;;;23.35;;
40339;SDS011;26044;50.864;20.658;2023-02-11T09:20:39;46.72;;;21.27;;
40339;SDS011;26044;50.864;20.658;2023-02-11T09:23:06;55.28;;;24.13;;
40339;SDS011;26044;50.864;20.658;2023-02-11T09:25:33;50.42;;;21.95;;
40339;SDS011;26044;50.864;20.658;2023-02-11T09:28:01;48.50;;;23.27;;
40339;SDS011;26044;50.864;20.658;2023-02-11T09:30:28;49.33;;;22.73;;
40339;SDS011;26044;50.864;20.658;2023-02-11T09:32:55;53.53;;;23.30;;
40339;SDS011;26044;50.864;20.658;2023-02-11T09:35:22;49.80;;;21.92;;
40339;SDS011;26044;50.864;20.658;2023-02-11T09:37:49;51.45;;;21.85;;
40339;SDS011;26044;50.864;20.658;2023-02-11T09:40:16;53.08;;;23.75;;
40339;SDS011;26044;50.864;20.658;2023-02-11T09:42:49;48.08;;;22.80;;
40339;SDS011;26044;50.864;20.658;2023-02-11T09:45:22;51.88;;;21.02;;
40339;SDS011;26044;50.864;20.658;2023-02-11T09:47:57;46.40;;;21.42;;
40339;SDS011;26044;50.864;20.658;2023-02-11T09:50:32;53.17;;;23.73;;
40339;SDS011;26044;50.864;20.658;2023-02-11T09:53:01;52.92;;;22.98;;
40339;SDS011;26044;50.864;20.658;2023-02-11T09:55:37;46.88;;;21.75;;
40339;SDS011;26044;50.864;20.658;2023-02-11T09:58:11;46.85;;;22.00;;
40339;SDS011;26044;50.864;20.658;2023-02-11T10:00:39;49.70;;;22.67;;
40339;SDS011;26044;50.864;20.658;2023-02-11T10:08:37;49.08;;;22.20;;
40339;SDS011;26044;50.864;20.658;2023-02-11T10:11:11;49.38;;;21.58;;
40339;SDS011;26044;50.864;20.658;2023-02-11T10:19:14;54.53;;;22.38;;
40339;SDS011;26044;50.864;20.658;2023-02-11T10:24:29;51.55;;;23.98;;
40339;SDS011;26044;50.864;20.658;2023-02-11T10:26:57;51.33;;;22.30;;
40339;SDS011;26044;50.864;20.658;2023-02-11T10:29:34;49.15;;;23.48;;
40339;SDS011;26044;50.864;20.658;2023-02-11T10:35:17;46.13;;;21.92;;
40339;SDS011;26044;50.864;20.658;2023-02-11T10:37:46;50.92;;;22.95;;
40339;SDS011;26044;50.864;20.658;2023-02-11T10:40:14;50.08;;;22.40;;
40339;SDS011;26044;50.864;20.658;2023-02-11T10:42:43;54.67;;;21.70;;
40339;SDS011;26044;50.864;20.658;2023-02-11T10:45:18;49.72;;;20.63;;
40339;SDS011;26044;50.864;20.658;2023-02-11T10:47:47;50.30;;;21.00;;
40339;SDS011;26044;50.864;20.658;2023-02-11T10:50:22;55.35;;;22.55;;
40339;SDS011;26044;50.864;20.658;2023-02-11T10:52:50;45.00;;;22.38;;
40339;SDS011;26044;50.864;20.658;2023-02-11T10:55:20;45.30;;;23.15;;
40339;SDS011;26044;50.864;20.658;2023-02-11T10:57:57;48.53;;;22.70;;
40339;SDS011;26044;50.864;20.658;2023-02-11T11:00:41;49.40;;;22.30;;
40339;SDS011;26044;50.864;20.658;2023-02-11T11:13:52;49.25;;;22.65;;
40339;SDS011;26044;50.864;20.658;2023-02-11T11:18:34;53.55;;;24.77;;
40339;SDS011;26044;50.864;20.658;2023-02-11T11:21:10;51.55;;;24.13;;
40339;SDS011;26044;50.864;20.658;2023-02-11T11:26:56;52.13;;;24.30;;
40339;SDS011;26044;50.864;20.658;2023-02-11T11:29:58;50.80;;;23.13;;
40339;SDS011;26044;50.864;20.658;2023-02-11T11:32:30;57.45;;;24.58;;
40339;SDS011;26044;50.864;20.658;2023-02-11T11:34:58;56.20;;;25.55;;
40339;SDS011;26044;50.864;20.658;2023-02-11T11:37:29;55.83;;;24.93;;
40339;SDS011;26044;50.864;20.658;2023-02-11T11:42:39;52.92;;;25.77;;
40339;SDS011;26044;50.864;20.658;2023-02-11T11:47:51;51.80;;;24.38;;
40339;SDS011;26044;50.864;20.658;2023-02-11T11:55:27;54.75;;;24.52;;
40339;SDS011;26044;50.864;20.658;2023-02-11T11:57:57;45.10;;;22.70;;
40339;SDS011;26044;50.864;20.658;2023-02-11T12:00:31;46.58;;;22.30;;
40339;SDS011;26044;50.864;20.658;2023-02-11T12:18:46;47.97;;;22.25;;
40339;SDS011;26044;50.864;20.658;2023-02-11T12:21:24;51.72;;;23.45;;
40339;SDS011;26044;50.864;20.658;2023-02-11T12:29:16;50.50;;;23.52;;
40339;SDS011;26044;50.864;20.658;2023-02-11T12:32:02;53.83;;;23.75;;
40339;SDS011;26044;50.864;20.658;2023-02-11T12:34:38;51.35;;;24.50;;
40339;SDS011;26044;50.864;20.658;2023-02-11T12:39:50;51.28;;;23.92;;
40339;SDS011;26044;50.864;20.658;2023-02-11T12:50:53;63.30;;;28.50;;
40339;SDS011;26044;50.864;20.658;2023-02-11T12:56:04;54.00;;;25.65;;
40339;SDS011;26044;50.864;20.658;2023-02-11T12:58:32;53.20;;;24.50;;
40339;SDS011;26044;50.864;20.658;2023-02-11T13:01:29;60.10;;;28.98;;
40339;SDS011;26044;50.864;20.658;2023-02-11T13:06:39;54.70;;;26.63;;
40339;SDS011;26044;50.864;20.658;2023-02-11T13:09:11;54.75;;;23.73;;
40339;SDS011;26044;50.864;20.658;2023-02-11T13:11:45;53.20;;;24.35;;
40339;SDS011;26044;50.864;20.658;2023-02-11T13:14:29;53.83;;;25.33;;
40339;SDS011;26044;50.864;20.658;2023-02-11T13:16:57;60.28;;;28.70;;
40339;SDS011;26044;50.864;20.658;2023-02-11T13:22:04;59.53;;;28.48;;
40339;SDS011;26044;50.864;20.658;2023-02-11T13:24:43;58.53;;;26.75;;
40339;SDS011;26044;50.864;20.658;2023-02-11T13:29:58;54.97;;;27.80;;
40339;SDS011;26044;50.864;20.658;2023-02-11T13:36:09;56.70;;;27.00;;
40339;SDS011;26044;50.864;20.658;2023-02-11T13:41:03;56.33;;;28.05;;
40339;SDS011;26044;50.864;20.658;2023-02-11T13:43:34;59.22;;;27.98;;
40339;SDS011;26044;50.864;20.658;2023-02-11T13:46:03;58.35;;;28.23;;
40339;SDS011;26044;50.864;20.658;2023-02-11T13:48:34;62.60;;;29.10;;
40339;SDS011;26044;50.864;20.658;2023-02-11T13:51:09;64.10;;;30.58;;
40339;SDS011;26044;50.864;20.658;2023-02-11T13:53:53;62.22;;;30.20;;
40339;SDS011;26044;50.864;20.658;2023-02-11T13:56:38;66.93;;;33.95;;
40339;SDS011;26044;50.864;20.658;2023-02-11T14:08:10;61.35;;;29.70;;
40339;SDS011;26044;50.864;20.658;2023-02-11T14:16:14;71.22;;;32.65;;
40339;SDS011;26044;50.864;20.658;2023-02-11T14:29:05;79.68;;;34.92;;
40339;SDS011;26044;50.864;20.658;2023-02-11T14:34:51;69.70;;;32.47;;
40339;SDS011;26044;50.864;20.658;2023-02-11T14:37:10;79.88;;;39.13;;
40339;SDS011;26044;50.864;20.658;2023-02-11T14:42:12;72.72;;;35.28;;
40339;SDS011;26044;50.864;20.658;2023-02-11T14:44:42;66.25;;;33.05;;
40339;SDS011;26044;50.864;20.658;2023-02-11T14:47:16;76.82;;;38.30;;
40339;SDS011;26044;50.864;20.658;2023-02-11T14:49:44;73.00;;;33.08;;
40339;SDS011;26044;50.864;20.658;2023-02-11T14:54:49;80.25;;;37.03;;
40339;SDS011;26044;50.864;20.658;2023-02-11T14:57:17;86.32;;;39.80;;
40339;SDS011;26044;50.864;20.658;2023-02-11T14:59:52;85.65;;;38.20;;
40339;SDS011;26044;50.864;20.658;2023-02-11T15:02:21;70.15;;;33.38;;
40339;SDS011;26044;50.864;20.658;2023-02-11T15:04:49;80.30;;;39.17;;
40339;SDS011;26044;50.864;20.658;2023-02-11T15:07:16;84.50;;;38.08;;
40339;SDS011;26044;50.864;20.658;2023-02-11T15:09:48;68.13;;;33.05;;
40339;SDS011;26044;50.864;20.658;2023-02-11T15:12:21;76.32;;;36.20;;
40339;SDS011;26044;50.864;20.658;2023-02-11T15:14:50;89.00;;;38.42;;
40339;SDS011;26044;50.864;20.658;2023-02-11T15:17:20;89.15;;;44.80;;
40339;SDS011;26044;50.864;20.658;2023-02-11T15:19:48;88.05;;;39.83;;
40339;SDS011;26044;50.864;20.658;2023-02-11T15:22:19;84.43;;;39.38;;
40339;SDS011;26044;50.864;20.658;2023-02-11T15:25:01;90.32;;;40.88;;
40339;SDS011;26044;50.864;20.658;2023-02-11T15:27:36;80.70;;;36.58;;
40339;SDS011;26044;50.864;20.658;2023-02-11T15:30:16;82.07;;;38.95;;
40339;SDS011;26044;50.864;20.658;2023-02-11T15:32:46;78.82;;;37.35;;
40339;SDS011;26044;50.864;20.658;2023-02-11T15:35:13;82.47;;;37.13;;
40339;SDS011;26044;50.864;20.658;2023-02-11T15:37:41;83.13;;;37.85;;
40339;SDS011;26044;50.864;20.658;2023-02-11T15:40:11;80.95;;;37.90;;
40339;SDS011;26044;50.864;20.658;2023-02-11T15:42:51;87.22;;;38.63;;
40339;SDS011;26044;50.864;20.658;2023-02-11T15:47:52;81.18;;;37.72;;
40339;SDS011;26044;50.864;20.658;2023-02-11T15:52:51;72.45;;;33.22;;
40339;SDS011;26044;50.864;20.658;2023-02-11T15:55:20;88.47;;;39.53;;
40339;SDS011;26044;50.864;20.658;2023-02-11T15:57:50;89.00;;;41.42;;
40339;SDS011;26044;50.864;20.658;2023-02-11T16:00:19;86.07;;;40.50;;
40339;SDS011;26044;50.864;20.658;2023-02-11T16:02:49;95.38;;;46.28;;
40339;SDS011;26044;50.864;20.658;2023-02-11T16:07:54;86.25;;;39.70;;
40339;SDS011;26044;50.864;20.658;2023-02-11T16:10:34;91.53;;;40.95;;
40339;SDS011;26044;50.864;20.658;2023-02-11T16:13:25;90.18;;;41.90;;
40339;SDS011;26044;50.864;20.658;2023-02-11T16:16:03;89.82;;;40.97;;
40339;SDS011;26044;50.864;20.658;2023-02-11T16:18:55;83.50;;;38.78;;
40339;SDS011;26044;50.864;20.658;2023-02-11T16:24:23;89.70;;;44.05;;
40339;SDS011;26044;50.864;20.658;2023-02-11T16:27:02;95.13;;;43.00;;
40339;SDS011;26044;50.864;20.658;2023-02-11T16:29:30;88.43;;;40.30;;
40339;SDS011;26044;50.864;20.658;2023-02-11T16:32:08;89.90;;;41.90;;
40339;SDS011;26044;50.864;20.658;2023-02-11T16:34:36;95.15;;;43.75;;
40339;SDS011;26044;50.864;20.658;2023-02-11T16:37:04;91.15;;;41.88;;
40339;SDS011;26044;50.864;20.658;2023-02-11T16:39:31;90.70;;;43.28;;
40339;SDS011;26044;50.864;20.658;2023-02-11T16:41:59;94.28;;;41.72;;
40339;SDS011;26044;50.864;20.658;2023-02-11T16:44:26;88.97;;;44.00;;
40339;SDS011;26044;50.864;20.658;2023-02-11T16:46:54;92.68;;;43.22;;
40339;SDS011;26044;50.864;20.658;2023-02-11T16:49:26;98.30;;;42.13;;
40339;SDS011;26044;50.864;20.658;2023-02-11T16:51:55;92.80;;;42.45;;
40339;SDS011;26044;50.864;20.658;2023-02-11T16:54:26;91.68;;;41.72;;
40339;SDS011;26044;50.864;20.658;2023-02-11T16:56:54;100.93;;;43.53;;
40339;SDS011;26044;50.864;20.658;2023-02-11T16:59:21;99.47;;;42.63;;
40339;SDS011;26044;50.864;20.658;2023-02-11T17:01:49;101.95;;;44.45;;
40339;SDS011;26044;50.864;20.658;2023-02-11T17:04:19;107.65;;;47.85;;
40339;SDS011;26044;50.864;20.658;2023-02-11T17:06:47;97.20;;;44.08;;
40339;SDS011;26044;50.864;20.658;2023-02-11T17:09:15;96.85;;;44.03;;
40339;SDS011;26044;50.864;20.658;2023-02-11T17:11:44;91.38;;;41.78;;
40339;SDS011;26044;50.864;20.658;2023-02-11T17:14:11;88.72;;;37.75;;
40339;SDS011;26044;50.864;20.658;2023-02-11T17:16:38;95.00;;;43.78;;